Time;durP1;ratioP1;P1;durP2;ratioP2;P2;SDS_P1;SDS_P2;PMS_P1;PMS_P2;Temp;Humidity;BMP_temperature;BMP_pressure;BME280_temperature;BME280_humidity;BME280_pressure;Samples;Min_cycle;Max_cycle;Signal;HPM_P1;HPM_P2
2023/10/14 00:01:31;;;;;;;6.68;3.60;;;;;;;;;;5087185;28;20119;-66
2023/10/14 00:03:56;;;;;;;9.15;3.70;;;;;;;;;;5090522;28;20024;-66
2023/10/14 00:06:22;;;;;;;7.40;3.95;;;;;;;;;;5087254;28;20074;-66
2023/10/14 00:08:57;;;;;;;8.73;4.10;;;;;;;;;;5081151;28;20020;-66
2023/10/14 00:11:33;;;;;;;9.63;5.15;;;;;;;;;;5090291;28;20021;-66
2023/10/14 00:13:58;;;;;;;10.80;4.70;;;;;;;;;;5091275;28;20024;-66
2023/10/14 00:16:35;;;;;;;9.43;4.68;;;;;;;;;;5093546;28;20016;-66
2023/10/14 00:19:04;;;;;;;11.95;4.88;;;;;;;;;;5093099;28;20028;-66
2023/10/14 00:21:33;;;;;;;10.07;3.92;;;;;;;;;;5082195;28;20445;-66
2023/10/14 00:24:01;;;;;;;5.97;3.00;;;;;;;;;;5093770;28;20032;-65
2023/10/14 00:26:27;;;;;;;5.20;2.58;;;;;;;;;;5094543;28;20028;-65
2023/10/14 00:29:01;;;;;;;8.25;3.25;;;;;;;;;;5081057;28;20360;-65
2023/10/14 00:31:26;;;;;;;3.88;1.88;;;;;;;;;;5094279;28;20035;-65
2023/10/14 00:33:54;;;;;;;5.53;1.83;;;;;;;;;;5093458;28;20020;-66
2023/10/14 00:36:20;;;;;;;5.13;1.75;;;;;;;;;;5093831;28;21007;-73
2023/10/14 00:38:45;;;;;;;4.90;1.60;;;;;;;;;;5085638;28;20023;-68
2023/10/14 00:41:13;;;;;;;6.43;2.60;;;;;;;;;;5084903;28;20406;-68
2023/10/14 00:43:41;;;;;;;8.52;1.90;;;;;;;;;;5081877;28;20556;-68
2023/10/14 00:46:10;;;;;;;4.88;1.65;;;;;;;;;;5094019;28;20028;-68
2023/10/14 00:48:40;;;;;;;5.88;1.75;;;;;;;;;;5086885;28;20023;-67
2023/10/14 00:51:05;;;;;;;6.60;2.03;;;;;;;;;;5084169;28;20028;-67
2023/10/14 00:53:31;;;;;;;5.32;1.52;;;;;;;;;;5085902;28;20027;-67
2023/10/14 00:55:57;;;;;;;4.90;1.38;;;;;;;;;;5086642;28;20035;-67
2023/10/14 00:58:28;;;;;;;4.93;1.35;;;;;;;;;;5090480;28;20097;-67
2023/10/14 01:00:59;;;;;;;7.35;1.67;;;;;;;;;;5081216;28;20115;-66
2023/10/14 01:03:26;;;;;;;2.08;0.70;;;;;;;;;;5092784;28;20581;-66
2023/10/14 01:05:55;;;;;;;1.35;0.70;;;;;;;;;;5093557;28;20024;-67
2023/10/14 01:08:22;;;;;;;3.83;0.65;;;;;;;;;;5085267;28;20035;-67
2023/10/14 01:10:49;;;;;;;3.15;0.95;;;;;;;;;;5093716;28;20073;-69
2023/10/14 01:13:15;;;;;;;2.45;0.68;;;;;;;;;;5085833;28;20062;-66
2023/10/14 01:15:47;;;;;;;1.35;0.30;;;;;;;;;;5092944;28;20655;-66
2023/10/14 01:18:14;;;;;;;0.80;0.15;;;;;;;;;;5092920;28;20046;-71
2023/10/14 01:20:40;;;;;;;3.10;0.20;;;;;;;;;;5092498;28;20031;-67
2023/10/14 01:23:08;;;;;;;0.95;0.20;;;;;;;;;;5093617;28;20032;-68
2023/10/14 01:25:41;;;;;;;1.75;0.40;;;;;;;;;;5091726;28;20016;-68
2023/10/14 01:28:12;;;;;;;0.25;0.10;;;;;;;;;;5093160;28;20036;-68
2023/10/14 01:30:46;;;;;;;0.40;0.10;;;;;;;;;;5092936;28;20462;-68
2023/10/14 01:33:24;;;;;;;;;;;;;;;;;;5093401;28;20024;-68
2023/10/14 01:35:51;;;;;;;0.85;0.15;;;;;;;;;;5093051;28;19912;-68
2023/10/14 01:38:17;;;;;;;1.25;0.20;;;;;;;;;;5092793;28;20027;-68
2023/10/14 01:40:54;;;;;;;2.25;0.70;;;;;;;;;;5073941;28;20028;-68
2023/10/14 01:43:24;;;;;;;1.08;0.30;;;;;;;;;;5092217;28;20024;-68
2023/10/14 01:48:25;;;;;;;1.70;0.28;;;;;;;;;;5091348;28;20081;-68
2023/10/14 01:50:57;;;;;;;1.67;0.30;;;;;;;;;;5093439;28;20098;-68
2023/10/14 01:53:23;;;;;;;0.88;0.35;;;;;;;;;;5092154;28;20020;-69
2023/10/14 01:55:50;;;;;;;0.98;0.40;;;;;;;;;;5092796;28;20425;-66
2023/10/14 01:58:36;;;;;;;2.10;0.80;;;;;;;;;;5092268;28;20069;-67
2023/10/14 02:03:48;;;;;;;2.50;1.27;;;;;;;;;;5093072;28;20032;-68
2023/10/14 02:06:17;;;;;;;4.28;1.90;;;;;;;;;;5092721;28;20434;-66
2023/10/14 02:08:43;;;;;;;3.78;2.13;;;;;;;;;;5092232;28;20043;-67
2023/10/14 02:11:09;;;;;;;6.78;2.30;;;;;;;;;;5091818;28;20463;-68
2023/10/14 02:13:36;;;;;;;4.78;2.03;;;;;;;;;;5092554;28;20032;-68
2023/10/14 02:16:08;;;;;;;4.60;1.63;;;;;;;;;;5091673;28;20024;-66
2023/10/14 02:18:36;;;;;;;5.43;1.23;;;;;;;;;;5092205;28;20161;-69
2023/10/14 02:21:05;;;;;;;5.32;1.33;;;;;;;;;;5073695;28;20060;-68
2023/10/14 02:23:43;;;;;;;5.10;1.30;;;;;;;;;;5091287;28;20115;-72
2023/10/14 02:26:09;;;;;;;2.60;1.27;;;;;;;;;;5090695;28;20146;-71
2023/10/14 02:28:40;;;;;;;4.88;1.60;;;;;;;;;;5092082;28;20115;-70
2023/10/14 02:31:16;;;;;;;5.93;1.73;;;;;;;;;;5091956;28;20031;-70
2023/10/14 02:33:45;;;;;;;5.35;1.80;;;;;;;;;;5090866;28;20032;-70
2023/10/14 02:36:14;;;;;;;7.53;2.22;;;;;;;;;;5091761;28;20032;-72
2023/10/14 02:38:39;;;;;;;7.95;1.98;;;;;;;;;;5087664;28;20360;-67
2023/10/14 02:41:04;;;;;;;6.30;2.20;;;;;;;;;;5092223;28;20035;-70
2023/10/14 02:43:30;;;;;;;5.57;2.35;;;;;;;;;;5062335;28;20278;-71
2023/10/14 02:46:00;;;;;;;8.15;2.35;;;;;;;;;;5092058;28;20051;-71
2023/10/14 02:48:28;;;;;;;6.57;2.67;;;;;;;;;;5091108;28;20039;-69
2023/10/14 02:51:06;;;;;;;8.95;2.83;;;;;;;;;;5091381;28;20405;-67
2023/10/14 02:53:32;;;;;;;6.93;2.40;;;;;;;;;;5070657;28;20028;-68
2023/10/14 02:56:04;;;;;;;10.90;2.97;;;;;;;;;;5079849;28;20021;-68
2023/10/14 02:58:31;;;;;;;9.48;2.55;;;;;;;;;;5091340;28;20027;-68
2023/10/14 03:00:59;;;;;;;6.32;2.42;;;;;;;;;;5092178;28;20039;-67
2023/10/14 03:03:24;;;;;;;10.45;2.55;;;;;;;;;;5073131;28;20035;-68
2023/10/14 03:05:52;;;;;;;8.68;2.28;;;;;;;;;;5085580;28;20024;-67
2023/10/14 03:08:18;;;;;;;9.57;2.17;;;;;;;;;;5072151;28;20054;-68
2023/10/14 03:10:54;;;;;;;7.50;1.90;;;;;;;;;;5091304;28;20031;-68
2023/10/14 03:13:20;;;;;;;8.20;2.65;;;;;;;;;;5090656;28;20024;-67
2023/10/14 03:15:52;;;;;;;11.50;2.77;;;;;;;;;;5091076;28;20457;-68
2023/10/14 03:18:17;;;;;;;9.65;2.58;;;;;;;;;;5089990;28;20675;-68
2023/10/14 03:20:58;;;;;;;7.35;2.45;;;;;;;;;;5091003;28;20020;-68
2023/10/14 03:23:23;;;;;;;6.30;2.10;;;;;;;;;;5091273;28;20051;-69
2023/10/14 03:25:50;;;;;;;6.70;2.15;;;;;;;;;;5090562;28;20470;-68
2023/10/14 03:28:16;;;;;;;8.77;1.85;;;;;;;;;;5091258;28;20036;-69
2023/10/14 03:30:44;;;;;;;11.85;2.85;;;;;;;;;;5091695;28;20028;-69
2023/10/14 03:33:11;;;;;;;9.73;2.10;;;;;;;;;;5090923;28;20467;-69
2023/10/14 03:35:37;;;;;;;4.93;2.20;;;;;;;;;;5086792;28;20051;-69
2023/10/14 03:38:11;;;;;;;10.93;2.40;;;;;;;;;;5082709;28;20059;-68
2023/10/14 03:43:16;;;;;;;9.05;2.38;;;;;;;;;;5090811;28;20398;-68
2023/10/14 03:45:56;;;;;;;9.10;3.00;;;;;;;;;;5091213;28;20035;-68
2023/10/14 03:48:26;;;;;;;7.38;2.83;;;;;;;;;;5090661;28;20047;-68
2023/10/14 03:50:51;;;;;;;10.88;2.85;;;;;;;;;;5094732;28;20036;-68
2023/10/14 03:53:17;;;;;;;7.80;2.80;;;;;;;;;;5093646;28;20070;-68
2023/10/14 03:55:42;;;;;;;14.33;3.13;;;;;;;;;;5094899;28;20274;-68
2023/10/14 03:58:08;;;;;;;10.13;2.60;;;;;;;;;;5085365;28;20302;-68
2023/10/14 04:00:39;;;;;;;8.13;2.85;;;;;;;;;;5092695;28;20028;-69
2023/10/14 04:03:11;;;;;;;10.20;2.75;;;;;;;;;;5090386;28;20169;-69
2023/10/14 04:05:44;;;;;;;8.65;2.60;;;;;;;;;;5085382;28;20136;-68
2023/10/14 04:08:09;;;;;;;10.27;3.20;;;;;;;;;;5094693;28;20052;-69
2023/10/14 04:10:43;;;;;;;12.68;2.88;;;;;;;;;;5094856;28;20056;-69
2023/10/14 04:13:12;;;;;;;11.45;2.95;;;;;;;;;;5088682;28;20043;-69
2023/10/14 04:15:51;;;;;;;16.40;3.55;;;;;;;;;;5073143;28;20020;-69
2023/10/14 04:18:24;;;;;;;11.88;2.38;;;;;;;;;;5094548;28;20020;-68
2023/10/14 04:21:02;;;;;;;10.23;2.20;;;;;;;;;;5093928;28;20027;-68
2023/10/14 04:23:29;;;;;;;9.73;2.63;;;;;;;;;;5093689;28;20017;-68
2023/10/14 04:26:03;;;;;;;9.15;2.45;;;;;;;;;;5088896;28;20024;-68
2023/10/14 04:28:31;;;;;;;11.00;2.72;;;;;;;;;;5085737;28;20031;-69
2023/10/14 04:31:00;;;;;;;10.18;2.55;;;;;;;;;;5094301;28;20020;-68
2023/10/14 04:33:34;;;;;;;11.25;3.55;;;;;;;;;;5093696;28;20074;-68
2023/10/14 04:38:42;;;;;;;10.98;2.75;;;;;;;;;;5089655;28;20437;-69
2023/10/14 04:41:14;;;;;;;12.57;2.65;;;;;;;;;;5094042;28;20016;-68
2023/10/14 04:46:16;;;;;;;16.70;3.15;;;;;;;;;;5093370;28;20059;-68
2023/10/14 04:48:50;;;;;;;9.50;2.40;;;;;;;;;;5091915;28;20036;-68
2023/10/14 04:51:15;;;;;;;7.95;1.98;;;;;;;;;;5093766;28;20062;-68
2023/10/14 04:53:43;;;;;;;13.27;3.03;;;;;;;;;;5093239;28;20518;-69
2023/10/14 04:56:08;;;;;;;9.38;3.08;;;;;;;;;;5093612;28;20028;-67
2023/10/14 04:58:33;;;;;;;11.32;2.33;;;;;;;;;;5093403;28;20081;-67
2023/10/14 05:01:03;;;;;;;9.60;2.92;;;;;;;;;;5092245;28;20385;-67
2023/10/14 05:03:32;;;;;;;15.00;3.45;;;;;;;;;;5094288;28;20065;-67
2023/10/14 05:08:44;;;;;;;12.10;2.53;;;;;;;;;;5093154;28;20040;-68
2023/10/14 05:11:12;;;;;;;10.13;2.58;;;;;;;;;;5092286;28;20034;-68
2023/10/14 05:13:39;;;;;;;10.75;2.80;;;;;;;;;;5093277;28;20443;-68
2023/10/14 05:16:20;;;;;;;10.77;2.42;;;;;;;;;;5092410;28;20102;-67
2023/10/14 05:19:07;;;;;;;10.02;2.08;;;;;;;;;;5092925;28;20444;-67
2023/10/14 05:21:35;;;;;;;14.63;2.45;;;;;;;;;;5093716;28;20024;-68
2023/10/14 05:24:06;;;;;;;13.43;2.08;;;;;;;;;;5093163;28;20020;-67
2023/10/14 05:26:35;;;;;;;10.60;2.50;;;;;;;;;;5093475;28;20032;-67
2023/10/14 05:29:11;;;;;;;10.73;2.35;;;;;;;;;;5092818;28;20030;-68
2023/10/14 05:31:36;;;;;;;12.70;1.95;;;;;;;;;;5093484;28;20028;-69
2023/10/14 05:34:01;;;;;;;9.40;2.00;;;;;;;;;;5092697;28;20027;-69
2023/10/14 05:36:27;;;;;;;9.65;2.15;;;;;;;;;;5093387;28;20107;-68
2023/10/14 05:38:52;;;;;;;11.07;1.98;;;;;;;;;;5088391;28;20028;-69
2023/10/14 05:41:17;;;;;;;10.27;2.20;;;;;;;;;;5090214;28;20024;-68
2023/10/14 05:43:42;;;;;;;11.10;2.30;;;;;;;;;;5092497;28;20258;-68
2023/10/14 05:46:12;;;;;;;9.20;2.37;;;;;;;;;;5093056;28;20035;-67
2023/10/14 05:48:37;;;;;;;12.00;2.63;;;;;;;;;;5092619;28;20381;-67
2023/10/14 05:51:02;;;;;;;18.15;2.78;;;;;;;;;;5093327;28;20095;-69
2023/10/14 05:53:28;;;;;;;8.93;2.03;;;;;;;;;;5090405;28;20020;-68
2023/10/14 05:55:56;;;;;;;10.27;1.85;;;;;;;;;;5092573;28;20020;-68
2023/10/14 05:58:26;;;;;;;7.53;2.00;;;;;;;;;;5092099;28;20390;-68
2023/10/14 06:00:53;;;;;;;10.20;2.17;;;;;;;;;;5092722;28;20024;-68
2023/10/14 06:03:19;;;;;;;8.80;2.10;;;;;;;;;;5090937;28;20027;-68
2023/10/14 06:05:44;;;;;;;9.07;2.45;;;;;;;;;;5092523;28;20833;-68
2023/10/14 06:08:16;;;;;;;12.70;3.53;;;;;;;;;;5092274;28;20057;-68
2023/10/14 06:10:42;;;;;;;10.43;2.50;;;;;;;;;;5092384;28;20294;-69
2023/10/14 06:13:08;;;;;;;11.63;2.33;;;;;;;;;;5091592;28;20051;-68
2023/10/14 06:15:40;;;;;;;9.32;3.03;;;;;;;;;;5080250;28;20463;-68
2023/10/14 06:18:05;;;;;;;6.40;2.30;;;;;;;;;;5089965;28;20024;-68
2023/10/14 06:20:35;;;;;;;15.15;3.05;;;;;;;;;;5092343;28;20042;-68
2023/10/14 06:23:00;;;;;;;10.02;2.25;;;;;;;;;;5092088;28;20043;-68
2023/10/14 06:25:26;;;;;;;11.68;2.58;;;;;;;;;;5087945;28;20062;-68
2023/10/14 06:27:53;;;;;;;15.30;3.08;;;;;;;;;;5091965;28;20056;-68
2023/10/14 06:30:19;;;;;;;11.65;2.83;;;;;;;;;;5091306;28;20094;-68
2023/10/14 06:33:03;;;;;;;11.43;3.78;;;;;;;;;;5091891;28;20102;-68
2023/10/14 06:35:32;;;;;;;9.98;2.35;;;;;;;;;;5091314;28;20031;-68
2023/10/14 06:37:58;;;;;;;11.77;3.22;;;;;;;;;;5092316;28;20042;-68
2023/10/14 06:40:23;;;;;;;10.95;2.63;;;;;;;;;;5091637;28;20020;-68
2023/10/14 06:42:50;;;;;;;15.60;2.63;;;;;;;;;;5092127;28;20024;-67
2023/10/14 06:45:18;;;;;;;7.78;2.28;;;;;;;;;;5090483;28;20034;-68
2023/10/14 06:47:50;;;;;;;9.43;2.53;;;;;;;;;;5090806;28;20512;-68
2023/10/14 06:50:15;;;;;;;12.27;3.53;;;;;;;;;;5090959;28;20906;-68
2023/10/14 06:52:41;;;;;;;9.35;2.45;;;;;;;;;;5091892;28;20032;-68
2023/10/14 06:55:07;;;;;;;9.10;2.58;;;;;;;;;;5091603;28;20020;-69
2023/10/14 06:57:36;;;;;;;9.60;2.88;;;;;;;;;;5091717;28;20097;-68
2023/10/14 07:00:08;;;;;;;7.00;2.65;;;;;;;;;;5063621;28;20026;-67
2023/10/14 07:02:35;;;;;;;11.43;2.47;;;;;;;;;;5048646;28;20817;-69
2023/10/14 07:05:01;;;;;;;13.32;3.05;;;;;;;;;;5038075;28;20568;-68
2023/10/14 07:07:27;;;;;;;16.67;3.10;;;;;;;;;;5045144;28;20020;-67
2023/10/14 07:09:52;;;;;;;11.80;2.03;;;;;;;;;;5046821;28;20144;-68
2023/10/14 07:12:21;;;;;;;7.33;2.93;;;;;;;;;;5048440;28;20024;-68
2023/10/14 07:14:46;;;;;;;8.52;2.50;;;;;;;;;;5048148;28;20274;-68
2023/10/14 07:17:13;;;;;;;11.85;2.67;;;;;;;;;;5048414;28;20035;-68
2023/10/14 07:19:38;;;;;;;7.53;2.08;;;;;;;;;;5038684;28;20020;-68
2023/10/14 07:22:07;;;;;;;9.87;2.37;;;;;;;;;;5028166;28;20039;-68
2023/10/14 07:24:33;;;;;;;9.05;2.70;;;;;;;;;;5089309;28;20310;-68
2023/10/14 07:26:58;;;;;;;11.85;2.90;;;;;;;;;;5091436;28;20133;-68
2023/10/14 07:29:23;;;;;;;8.27;2.33;;;;;;;;;;5090937;28;20024;-68
2023/10/14 07:31:49;;;;;;;8.38;2.58;;;;;;;;;;5091131;28;20297;-68
2023/10/14 07:34:16;;;;;;;11.98;2.50;;;;;;;;;;5090973;28;20024;-68
2023/10/14 07:36:41;;;;;;;8.30;2.70;;;;;;;;;;5091279;28;20020;-68
2023/10/14 07:41:52;;;;;;;15.27;2.97;;;;;;;;;;5091400;28;20035;-69
2023/10/14 07:44:18;;;;;;;8.65;2.22;;;;;;;;;;5090739;28;20020;-69
2023/10/14 07:46:43;;;;;;;10.95;2.55;;;;;;;;;;5066057;28;20454;-68
2023/10/14 07:49:08;;;;;;;12.30;2.53;;;;;;;;;;5077367;28;20020;-68
2023/10/14 07:51:34;;;;;;;10.00;2.67;;;;;;;;;;5091155;28;20466;-67
2023/10/14 07:53:59;;;;;;;10.73;2.58;;;;;;;;;;5090349;28;20741;-68
2023/10/14 07:56:24;;;;;;;8.23;2.15;;;;;;;;;;5090581;28;20032;-68
2023/10/14 07:58:52;;;;;;;11.18;2.65;;;;;;;;;;5072073;28;20036;-68
2023/10/14 08:01:18;;;;;;;11.77;2.13;;;;;;;;;;5090771;28;20070;-68
2023/10/14 08:03:43;;;;;;;9.98;2.08;;;;;;;;;;5089902;28;20017;-68
2023/10/14 08:06:10;;;;;;;9.40;2.97;;;;;;;;;;5089696;28;20343;-68
2023/10/14 08:08:42;;;;;;;7.22;1.60;;;;;;;;;;5090036;28;20286;-68
2023/10/14 08:11:08;;;;;;;6.72;1.98;;;;;;;;;;5090809;28;20028;-68
2023/10/14 08:13:33;;;;;;;6.95;1.90;;;;;;;;;;5085839;28;20524;-68
2023/10/14 08:15:59;;;;;;;11.32;2.03;;;;;;;;;;5074263;28;20368;-68
2023/10/14 08:18:25;;;;;;;8.52;2.10;;;;;;;;;;5087333;28;20450;-68
2023/10/14 08:20:53;;;;;;;10.15;2.22;;;;;;;;;;5080758;28;20028;-68
2023/10/14 08:23:20;;;;;;;8.40;2.28;;;;;;;;;;5090286;28;20475;-69
2023/10/14 08:25:46;;;;;;;6.82;1.90;;;;;;;;;;5090168;28;20062;-68
2023/10/14 08:28:12;;;;;;;9.77;2.22;;;;;;;;;;5086241;28;20044;-68
2023/10/14 08:30:46;;;;;;;15.95;2.40;;;;;;;;;;5086121;28;20032;-68
2023/10/14 08:33:15;;;;;;;12.75;1.90;;;;;;;;;;5090440;28;20028;-68
2023/10/14 08:35:42;;;;;;;10.05;2.22;;;;;;;;;;5084255;28;20050;-68
2023/10/14 08:38:11;;;;;;;7.13;2.60;;;;;;;;;;5093706;28;20064;-68
2023/10/14 08:40:36;;;;;;;8.82;1.38;;;;;;;;;;5093886;28;20379;-68
2023/10/14 08:43:05;;;;;;;11.70;2.40;;;;;;;;;;5093805;28;20031;-68
2023/10/14 08:45:38;;;;;;;12.75;3.50;;;;;;;;;;5093413;28;20036;-68
2023/10/14 08:48:05;;;;;;;6.82;1.75;;;;;;;;;;5092485;28;20032;-70
2023/10/14 08:50:33;;;;;;;12.35;2.00;;;;;;;;;;5093874;28;20032;-68
2023/10/14 08:53:00;;;;;;;7.85;2.10;;;;;;;;;;5087506;28;20031;-68
2023/10/14 08:55:28;;;;;;;9.70;2.13;;;;;;;;;;5093296;28;20028;-68
2023/10/14 08:57:54;;;;;;;10.05;2.03;;;;;;;;;;5080881;28;20040;-68
2023/10/14 09:00:20;;;;;;;10.25;1.80;;;;;;;;;;5093975;28;20020;-68
2023/10/14 09:02:49;;;;;;;7.13;2.15;;;;;;;;;;5093397;28;20048;-68
2023/10/14 09:05:16;;;;;;;14.02;2.40;;;;;;;;;;5093327;28;20043;-68
2023/10/14 09:07:43;;;;;;;15.57;1.77;;;;;;;;;;5091601;28;20457;-67
2023/10/14 09:10:09;;;;;;;11.60;2.40;;;;;;;;;;5093587;28;20060;-67
2023/10/14 09:12:34;;;;;;;9.93;2.00;;;;;;;;;;5092840;28;20055;-68
2023/10/14 09:14:59;;;;;;;10.00;2.45;;;;;;;;;;5093169;28;20451;-68
2023/10/14 09:17:24;;;;;;;9.48;1.88;;;;;;;;;;5090497;28;20028;-68
2023/10/14 09:19:50;;;;;;;10.23;2.17;;;;;;;;;;5090549;28;20024;-68
2023/10/14 09:22:22;;;;;;;7.43;1.70;;;;;;;;;;5091127;28;20286;-68
2023/10/14 09:24:49;;;;;;;12.55;1.90;;;;;;;;;;5093292;28;20027;-68
2023/10/14 09:27:14;;;;;;;13.38;2.10;;;;;;;;;;5085638;28;20035;-68
2023/10/14 09:29:39;;;;;;;9.50;2.38;;;;;;;;;;5093306;28;20036;-68
2023/10/14 09:32:05;;;;;;;8.33;2.17;;;;;;;;;;5088328;28;20162;-68
2023/10/14 09:34:30;;;;;;;10.43;2.13;;;;;;;;;;5091780;28;20361;-68
2023/10/14 09:36:55;;;;;;;10.18;2.20;;;;;;;;;;5092600;28;20028;-70
2023/10/14 09:39:24;;;;;;;10.10;2.00;;;;;;;;;;5092854;28;20020;-69
2023/10/14 09:41:52;;;;;;;9.93;1.73;;;;;;;;;;5092262;28;20024;-69
2023/10/14 09:44:17;;;;;;;8.38;1.88;;;;;;;;;;5091776;28;20028;-69
2023/10/14 09:46:43;;;;;;;10.73;2.10;;;;;;;;;;5088142;28;20029;-68
2023/10/14 09:49:10;;;;;;;7.93;1.52;;;;;;;;;;5065108;28;20036;-69
2023/10/14 09:51:36;;;;;;;11.50;2.03;;;;;;;;;;5081829;28;20016;-68
2023/10/14 09:54:03;;;;;;;9.15;1.50;;;;;;;;;;5081295;28;20556;-68
2023/10/14 09:56:28;;;;;;;6.90;1.80;;;;;;;;;;5072697;28;20117;-68
2023/10/14 09:58:53;;;;;;;8.85;2.28;;;;;;;;;;5045436;28;20141;-69
2023/10/14 10:01:19;;;;;;;7.45;2.08;;;;;;;;;;5047967;28;20024;-68
2023/10/14 10:03:48;;;;;;;7.68;1.95;;;;;;;;;;5045943;28;20093;-68
2023/10/14 10:06:16;;;;;;;7.88;2.35;;;;;;;;;;5040362;28;20851;-68
2023/10/14 10:08:41;;;;;;;10.30;1.90;;;;;;;;;;5043036;28;20130;-67
2023/10/14 10:11:08;;;;;;;10.23;1.70;;;;;;;;;;5045782;28;20140;-67
2023/10/14 10:13:35;;;;;;;6.70;1.70;;;;;;;;;;5035903;28;20818;-68
2023/10/14 10:16:03;;;;;;;7.93;1.75;;;;;;;;;;5038692;28;20131;-66
2023/10/14 10:18:47;;;;;;;6.78;1.70;;;;;;;;;;5046535;28;20050;-69
2023/10/14 10:21:12;;;;;;;6.20;1.33;;;;;;;;;;5039575;28;20032;-67
2023/10/14 10:23:37;;;;;;;7.07;1.45;;;;;;;;;;5062374;28;20020;-67
2023/10/14 10:26:03;;;;;;;6.75;1.60;;;;;;;;;;5073163;28;20083;-68
2023/10/14 10:28:34;;;;;;;7.78;1.80;;;;;;;;;;5085943;28;20044;-67
2023/10/14 10:31:20;;;;;;;5.10;1.45;;;;;;;;;;5081819;28;20111;-68
2023/10/14 10:33:45;;;;;;;7.43;1.48;;;;;;;;;;5090111;28;20028;-69
2023/10/14 10:36:12;;;;;;;5.90;1.50;;;;;;;;;;5092229;28;20042;-69
2023/10/14 10:38:37;;;;;;;8.80;1.90;;;;;;;;;;5091798;28;20020;-67
2023/10/14 10:41:25;;;;;;;8.48;1.98;;;;;;;;;;5092252;28;20021;-69
2023/10/14 10:44:11;;;;;;;9.75;2.10;;;;;;;;;;5086439;28;20031;-70
2023/10/14 10:46:38;;;;;;;10.32;2.15;;;;;;;;;;5089623;28;20096;-69
2023/10/14 10:49:06;;;;;;;14.73;2.22;;;;;;;;;;5089506;28;20058;-68
2023/10/14 10:51:32;;;;;;;9.32;2.30;;;;;;;;;;5091516;28;21399;-68
2023/10/14 10:53:59;;;;;;;8.52;1.95;;;;;;;;;;5090381;28;20035;-67
2023/10/14 10:56:26;;;;;;;6.43;1.95;;;;;;;;;;5067522;28;20024;-67
2023/10/14 10:58:51;;;;;;;5.60;1.35;;;;;;;;;;5038992;28;20774;-67
2023/10/14 11:01:19;;;;;;;8.50;1.98;;;;;;;;;;5087857;28;20072;-67
2023/10/14 11:03:45;;;;;;;8.25;1.40;;;;;;;;;;5090616;28;20016;-67
2023/10/14 11:06:13;;;;;;;6.68;1.70;;;;;;;;;;5091235;28;20498;-67
2023/10/14 11:08:39;;;;;;;8.73;1.73;;;;;;;;;;5091069;28;20028;-67
2023/10/14 11:11:04;;;;;;;6.65;1.55;;;;;;;;;;5091109;28;20028;-69
2023/10/14 11:13:29;;;;;;;9.60;2.08;;;;;;;;;;5039472;28;20918;-68
2023/10/14 11:15:55;;;;;;;5.90;1.27;;;;;;;;;;5069450;28;20035;-67
2023/10/14 11:18:20;;;;;;;8.20;1.47;;;;;;;;;;5091226;28;20286;-68
2023/10/14 11:20:46;;;;;;;4.60;1.73;;;;;;;;;;5091377;28;20347;-68
2023/10/14 11:23:11;;;;;;;8.88;1.60;;;;;;;;;;5082623;28;20024;-67
2023/10/14 11:25:40;;;;;;;6.50;1.63;;;;;;;;;;5085336;28;20464;-68
2023/10/14 11:28:05;;;;;;;5.90;1.48;;;;;;;;;;5087917;28;20028;-67
2023/10/14 11:30:31;;;;;;;6.25;1.65;;;;;;;;;;5090979;28;20050;-68
2023/10/14 11:32:59;;;;;;;6.78;1.65;;;;;;;;;;5090923;28;20122;-68
2023/10/14 11:35:28;;;;;;;9.65;1.75;;;;;;;;;;5090570;28;20039;-68
2023/10/14 11:38:00;;;;;;;6.68;1.80;;;;;;;;;;5089466;28;20040;-67
2023/10/14 11:40:32;;;;;;;8.40;1.77;;;;;;;;;;5091125;28;20035;-68
2023/10/14 11:42:58;;;;;;;4.35;1.60;;;;;;;;;;5090262;28;20028;-68
2023/10/14 11:45:24;;;;;;;6.43;1.35;;;;;;;;;;5088892;28;20135;-68
2023/10/14 11:47:49;;;;;;;4.85;1.50;;;;;;;;;;5082499;28;20528;-69
2023/10/14 11:50:17;;;;;;;5.13;1.58;;;;;;;;;;5091074;28;20020;-68
2023/10/14 11:52:43;;;;;;;5.10;1.60;;;;;;;;;;5091104;28;20067;-67
2023/10/14 11:55:14;;;;;;;6.05;1.50;;;;;;;;;;5090612;28;20048;-68
2023/10/14 11:57:46;;;;;;;7.50;1.98;;;;;;;;;;5091174;28;20024;-68
2023/10/14 12:00:16;;;;;;;7.05;1.38;;;;;;;;;;5089636;28;20524;-68
2023/10/14 12:02:42;;;;;;;5.03;1.67;;;;;;;;;;5090417;28;20024;-67
2023/10/14 12:05:08;;;;;;;9.15;2.10;;;;;;;;;;5091100;28;20025;-69
2023/10/14 12:07:33;;;;;;;11.80;1.75;;;;;;;;;;5090565;28;20099;-67
2023/10/14 12:09:59;;;;;;;9.05;1.92;;;;;;;;;;5091929;28;20466;-68
2023/10/14 12:12:25;;;;;;;6.28;2.00;;;;;;;;;;5086288;28;20503;-67
2023/10/14 12:14:50;;;;;;;11.02;2.40;;;;;;;;;;5092911;28;20084;-67
2023/10/14 12:17:15;;;;;;;8.27;1.75;;;;;;;;;;5093917;28;20028;-68
2023/10/14 12:19:41;;;;;;;6.25;1.90;;;;;;;;;;5093032;28;20023;-68
2023/10/14 12:22:06;;;;;;;5.70;1.98;;;;;;;;;;5093703;28;20024;-68
2023/10/14 12:24:32;;;;;;;11.02;1.80;;;;;;;;;;5092704;28;20030;-67
2023/10/14 12:26:57;;;;;;;9.95;1.90;;;;;;;;;;5089161;28;20024;-68
2023/10/14 12:29:23;;;;;;;8.98;2.13;;;;;;;;;;5089880;28;20039;-66
2023/10/14 12:31:48;;;;;;;5.13;1.30;;;;;;;;;;5068363;28;20988;-66
2023/10/14 12:34:14;;;;;;;8.68;2.28;;;;;;;;;;5050662;28;20933;-67
2023/10/14 12:36:43;;;;;;;11.60;2.08;;;;;;;;;;5037039;28;20052;-66
2023/10/14 12:39:33;;;;;;;10.73;1.60;;;;;;;;;;5045887;28;20031;-66
2023/10/14 12:42:02;;;;;;;9.05;1.90;;;;;;;;;;5079712;28;20170;-66
2023/10/14 12:44:27;;;;;;;6.03;1.63;;;;;;;;;;5090833;28;20036;-65
2023/10/14 12:46:53;;;;;;;8.10;1.93;;;;;;;;;;5093552;28;20028;-67
2023/10/14 12:49:18;;;;;;;6.67;1.70;;;;;;;;;;5093131;28;20337;-67
2023/10/14 12:51:44;;;;;;;6.20;1.60;;;;;;;;;;5090600;28;20294;-67
2023/10/14 12:54:16;;;;;;;7.82;2.03;;;;;;;;;;5093001;28;20386;-67
2023/10/14 12:56:42;;;;;;;9.63;2.22;;;;;;;;;;5093373;28;20035;-67
2023/10/14 12:59:12;;;;;;;10.25;1.60;;;;;;;;;;5089076;28;20024;-67
2023/10/14 13:01:38;;;;;;;6.43;1.80;;;;;;;;;;5090404;28;20642;-67
2023/10/14 13:04:05;;;;;;;11.60;1.88;;;;;;;;;;5093473;28;20111;-67
2023/10/14 13:06:30;;;;;;;7.63;2.90;;;;;;;;;;5093156;28;20471;-66
2023/10/14 13:09:00;;;;;;;9.63;1.60;;;;;;;;;;5092472;28;20028;-67
2023/10/14 13:11:29;;;;;;;8.02;2.15;;;;;;;;;;5092968;28;20024;-66
2023/10/14 13:13:54;;;;;;;5.88;1.40;;;;;;;;;;5092832;28;20028;-67
2023/10/14 13:16:20;;;;;;;5.43;1.40;;;;;;;;;;5060640;28;20031;-66
2023/10/14 13:18:45;;;;;;;7.53;1.60;;;;;;;;;;5047363;28;20915;-66
2023/10/14 13:21:19;;;;;;;4.75;1.63;;;;;;;;;;5047325;28;20020;-66
2023/10/14 13:23:46;;;;;;;7.40;1.65;;;;;;;;;;5047134;28;20024;-68
2023/10/14 13:26:12;;;;;;;8.68;2.50;;;;;;;;;;5044204;28;20079;-66
2023/10/14 13:28:37;;;;;;;7.45;1.55;;;;;;;;;;5022514;28;20965;-68
2023/10/14 13:31:04;;;;;;;5.05;1.50;;;;;;;;;;5046144;28;20028;-68
2023/10/14 13:33:29;;;;;;;12.38;1.92;;;;;;;;;;5053832;28;20030;-68
2023/10/14 13:35:55;;;;;;;8.35;1.80;;;;;;;;;;5078247;28;20032;-69
2023/10/14 13:38:24;;;;;;;8.35;2.17;;;;;;;;;;5092914;28;20020;-68
2023/10/14 13:40:53;;;;;;;7.35;2.10;;;;;;;;;;5091756;28;20070;-68
2023/10/14 13:43:18;;;;;;;7.57;2.00;;;;;;;;;;5092539;28;20028;-65
2023/10/14 13:45:43;;;;;;;6.18;1.48;;;;;;;;;;5092670;28;20103;-68
2023/10/14 13:48:09;;;;;;;6.65;1.85;;;;;;;;;;5087892;28;20100;-67
2023/10/14 13:50:38;;;;;;;8.55;1.60;;;;;;;;;;5092786;28;20034;-69
2023/10/14 13:53:09;;;;;;;9.85;1.80;;;;;;;;;;5091917;28;20024;-69
2023/10/14 13:55:36;;;;;;;7.93;1.75;;;;;;;;;;5090710;28;20069;-69
2023/10/14 13:58:06;;;;;;;11.82;1.90;;;;;;;;;;5091181;28;20042;-69
2023/10/14 14:00:37;;;;;;;9.23;1.67;;;;;;;;;;5092663;28;20024;-70
2023/10/14 14:03:12;;;;;;;10.20;2.33;;;;;;;;;;5092542;28;20107;-70
2023/10/14 14:05:38;;;;;;;7.93;2.20;;;;;;;;;;5091954;28;20028;-69
2023/10/14 14:08:07;;;;;;;9.25;2.05;;;;;;;;;;5092318;28;20115;-70
2023/10/14 14:10:32;;;;;;;9.23;2.40;;;;;;;;;;5092680;28;20524;-71
2023/10/14 14:12:57;;;;;;;8.70;1.50;;;;;;;;;;5091885;28;20024;-70
2023/10/14 14:15:23;;;;;;;8.60;1.47;;;;;;;;;;5085329;28;20382;-70
2023/10/14 14:17:48;;;;;;;6.63;1.33;;;;;;;;;;5081575;28;20637;-70
2023/10/14 14:20:16;;;;;;;6.72;1.38;;;;;;;;;;5043758;28;20143;-69
2023/10/14 14:22:43;;;;;;;8.25;2.10;;;;;;;;;;5076028;28;20201;-69
2023/10/14 14:25:08;;;;;;;9.43;1.33;;;;;;;;;;5084941;28;20125;-69
2023/10/14 14:27:35;;;;;;;7.50;1.60;;;;;;;;;;5092155;28;20098;-69
2023/10/14 14:30:06;;;;;;;9.77;1.42;;;;;;;;;;5092210;28;20372;-69
2023/10/14 14:32:32;;;;;;;10.27;1.92;;;;;;;;;;5084595;28;20109;-70
2023/10/14 14:34:57;;;;;;;6.65;1.30;;;;;;;;;;5091618;28;20058;-70
2023/10/14 14:37:22;;;;;;;9.05;1.65;;;;;;;;;;5092167;28;20016;-70
2023/10/14 14:39:47;;;;;;;6.85;1.80;;;;;;;;;;5092096;28;20108;-70
2023/10/14 14:42:13;;;;;;;5.43;1.48;;;;;;;;;;5091544;28;20035;-69
2023/10/14 14:44:41;;;;;;;6.80;1.92;;;;;;;;;;5092076;28;20017;-68
2023/10/14 14:47:06;;;;;;;7.35;1.50;;;;;;;;;;5090565;28;20082;-68
2023/10/14 14:49:32;;;;;;;9.20;1.53;;;;;;;;;;5091628;28;20032;-68
2023/10/14 14:51:57;;;;;;;4.77;1.70;;;;;;;;;;5078210;28;20278;-70
2023/10/14 14:54:22;;;;;;;8.05;1.90;;;;;;;;;;5091104;28;20281;-68
2023/10/14 14:56:47;;;;;;;9.77;1.88;;;;;;;;;;5091521;28;20455;-68
2023/10/14 14:59:13;;;;;;;8.95;1.73;;;;;;;;;;5092313;28;20025;-68
2023/10/14 15:01:40;;;;;;;6.95;1.70;;;;;;;;;;5083758;28;20058;-68